createdAt,value
2023-01-18T00:02:02.389Z,93359.47
2023-01-18T00:04:30.348Z,93365.56
2023-01-18T00:06:58.518Z,93374.66
2023-01-18T00:09:27.793Z,93371.22
2023-01-18T00:11:55.658Z,93367.84
2023-01-18T00:14:23.795Z,93372.47
2023-01-18T00:16:51.726Z,93366.31
2023-01-18T00:19:19.640Z,93367.38
2023-01-18T00:21:49.911Z,93366.97
2023-01-18T00:24:17.818Z,93375.66
2023-01-18T00:26:47.103Z,93367.66
2023-01-18T00:29:15.062Z,93369.38
2023-01-18T00:31:43.081Z,93379.94
2023-01-18T00:34:12.984Z,93388.41
2023-01-18T00:36:40.889Z,93399.84
2023-01-18T00:39:09.818Z,93404.19
2023-01-18T00:41:58.768Z,93400.03
2023-01-18T00:44:27.000Z,93401.31
2023-01-18T00:46:58.741Z,93402.94
2023-01-18T00:49:27.213Z,93406.88
2023-01-18T00:51:56.787Z,93405.91
2023-01-18T00:54:25.912Z,93407.44
2023-01-18T00:56:53.909Z,93410.28
2023-01-18T00:59:21.806Z,93409.69
2023-01-18T01:01:51.197Z,93411.81
2023-01-18T01:04:36.438Z,93412.88
2023-01-18T01:07:04.368Z,93408.06
2023-01-18T01:09:32.496Z,93406.66
2023-01-18T01:12:17.586Z,93406.53
2023-01-18T01:15:04.432Z,93410.34
2023-01-18T01:17:53.076Z,93410.41
2023-01-18T01:20:38.781Z,93399.84
2023-01-18T01:23:28.066Z,93401.75
2023-01-18T01:26:05.379Z,93388.81
2023-01-18T01:28:33.249Z,93380.59
2023-01-18T01:31:01.656Z,93372.38
2023-01-18T01:33:31.758Z,93368.09
2023-01-18T01:36:01.153Z,93364.91
2023-01-18T01:38:36.964Z,93353.31
2023-01-18T01:41:06.721Z,93350.06
2023-01-18T01:43:44.637Z,93337.63
2023-01-18T01:46:26.096Z,93324.13
2023-01-18T01:49:00.452Z,93320.81
2023-01-18T01:51:28.399Z,93319.59
2023-01-18T01:53:59.747Z,93329.28
2023-01-18T01:56:27.795Z,93337.31
2023-01-18T01:58:59.276Z,93341.03
2023-01-18T02:01:27.601Z,93340.31
2023-01-18T02:03:59.504Z,93353.84
2023-01-18T02:06:35.147Z,93361.41
2023-01-18T02:09:05.971Z,93378.66
2023-01-18T02:11:33.883Z,93385.22
2023-01-18T02:14:03.952Z,93410.09
2023-01-18T02:16:44.045Z,93414.47
2023-01-18T02:19:22.230Z,93419.50
2023-01-18T02:21:53.970Z,93415.88
2023-01-18T02:24:52.235Z,93420.91
2023-01-18T02:27:24.022Z,93423.09
2023-01-18T02:30:11.227Z,93436.56
2023-01-18T02:32:56.400Z,93437.25
2023-01-18T02:35:31.059Z,93439.69
2023-01-18T02:38:08.246Z,93463.56
2023-01-18T02:40:45.459Z,93458.53
2023-01-18T02:43:44.177Z,93461.47
2023-01-18T02:46:34.866Z,93443.59
2023-01-18T02:49:06.280Z,93437.06
2023-01-18T02:51:34.298Z,93433.50
2023-01-18T02:54:04.861Z,93440.75
2023-01-18T02:56:37.186Z,93440.69
2023-01-18T02:59:08.738Z,93439.28
2023-01-18T03:01:44.062Z,93445.28
2023-01-18T03:04:15.312Z,93443.63
2023-01-18T03:06:49.161Z,93440.03
2023-01-18T03:09:21.478Z,93438.81
2023-01-18T03:12:00.170Z,93432.69
2023-01-18T03:14:38.025Z,93430.44
2023-01-18T03:17:12.644Z,93422.66
2023-01-18T03:20:03.690Z,93425.56
2023-01-18T03:22:51.887Z,93421.88
2023-01-18T03:25:24.710Z,93428.75
2023-01-18T03:28:10.857Z,93421.88
2023-01-18T03:30:57.729Z,93419.47
2023-01-18T03:33:45.693Z,93419.72
2023-01-18T03:36:20.514Z,93414.13
2023-01-18T03:38:50.015Z,93414.72
2023-01-18T03:41:18.647Z,93413.75
2023-01-18T03:43:48.350Z,93410.50
2023-01-18T03:46:16.724Z,93405.19
2023-01-18T03:48:46.063Z,93418.00
2023-01-18T03:51:18.501Z,93424.41
2023-01-18T03:53:53.182Z,93431.47
2023-01-18T03:56:26.572Z,93431.72
2023-01-18T03:58:57.557Z,93437.69
2023-01-18T04:01:26.071Z,93439.22
2023-01-18T04:03:57.997Z,93441.56
2023-01-18T04:06:25.948Z,93437.50
2023-01-18T04:08:56.341Z,93433.19
2023-01-18T04:11:24.241Z,93431.06
2023-01-18T04:13:54.376Z,93438.22
2023-01-18T04:16:22.621Z,93432.91
2023-01-18T04:18:50.570Z,93433.75
2023-01-18T04:21:27.240Z,93436.34
2023-01-18T04:23:55.150Z,93439.53
2023-01-18T04:26:25.364Z,93450.41
2023-01-18T04:28:53.281Z,93452.22
2023-01-18T04:31:22.063Z,93459.13
2023-01-18T04:33:51.630Z,93458.50
2023-01-18T04:36:20.991Z,93458.28
2023-01-18T04:38:49.217Z,93457.06
2023-01-18T04:41:24.196Z,93447.69
2023-01-18T04:43:54.410Z,93452.50
2023-01-18T04:46:22.348Z,93447.75
2023-01-18T04:48:52.331Z,93442.78
2023-01-18T04:51:23.908Z,93440.00
2023-01-18T04:53:52.128Z,93433.97
2023-01-18T04:56:20.367Z,93439.22
2023-01-18T04:58:48.261Z,93433.84
2023-01-18T05:01:17.159Z,93437.28
2023-01-18T05:03:45.157Z,93450.56
2023-01-18T05:06:16.987Z,93471.00
2023-01-18T05:08:46.613Z,93491.31
2023-01-18T05:11:16.164Z,93501.69
2023-01-18T05:13:46.953Z,93525.34
2023-01-18T05:16:16.821Z,93523.38
2023-01-18T05:18:45.123Z,93521.03
2023-01-18T05:21:13.296Z,93519.63
2023-01-18T05:23:41.256Z,93526.94
2023-01-18T05:26:19.496Z,93539.28
2023-01-18T05:28:48.325Z,93538.69
2023-01-18T05:31:18.187Z,93542.03
2023-01-18T05:33:48.403Z,93545.34
2023-01-18T05:36:16.623Z,93542.06
2023-01-18T05:38:47.231Z,93547.44
2023-01-18T05:41:16.590Z,93551.25
2023-01-18T05:43:44.537Z,93553.03
2023-01-18T05:46:12.527Z,93552.50
2023-01-18T05:48:40.489Z,93559.16
2023-01-18T05:51:11.849Z,93556.88
2023-01-18T05:53:39.795Z,93546.59
2023-01-18T05:56:09.096Z,93546.25
2023-01-18T05:58:41.803Z,93548.88
2023-01-18T06:01:09.770Z,93548.63
2023-01-18T06:03:37.970Z,93540.84
2023-01-18T06:06:06.698Z,93544.75
2023-01-18T06:08:34.986Z,93536.28
2023-01-18T06:11:03.134Z,93549.53
2023-01-18T06:13:32.767Z,93552.63
2023-01-18T06:16:03.015Z,93553.22
2023-01-18T06:18:32.782Z,93553.78
2023-01-18T06:21:01.861Z,93553.63
2023-01-18T06:23:30.443Z,93560.72
2023-01-18T06:25:58.582Z,93560.50
2023-01-18T06:28:28.041Z,93567.03
2023-01-18T06:30:58.056Z,93574.59
2023-01-18T06:33:28.338Z,93565.91
2023-01-18T06:35:56.268Z,93569.78
2023-01-18T06:38:27.665Z,93566.25
2023-01-18T06:40:55.539Z,93580.31
2023-01-18T06:43:23.657Z,93590.97
2023-01-18T06:45:55.399Z,93593.59
2023-01-18T06:48:24.138Z,93608.22
2023-01-18T06:50:54.267Z,93613.16
2023-01-18T06:53:22.322Z,93613.03
2023-01-18T06:55:57.967Z,93621.41
2023-01-18T06:58:26.933Z,93628.72
2023-01-18T07:01:00.515Z,93632.59
2023-01-18T07:03:29.226Z,93616.03
2023-01-18T07:06:00.096Z,93650.78
2023-01-18T07:08:30.916Z,93647.47
2023-01-18T07:11:02.454Z,93658.91
2023-01-18T07:13:30.358Z,93661.34
2023-01-18T07:16:01.078Z,93657.31
2023-01-18T07:18:30.254Z,93666.34
2023-01-18T07:21:00.859Z,93666.44
2023-01-18T07:23:29.116Z,93669.91
2023-01-18T07:26:03.513Z,93675.34
2023-01-18T07:28:31.967Z,93683.78
2023-01-18T07:31:00.430Z,93683.59
2023-01-18T07:33:28.590Z,93691.63
2023-01-18T07:35:57.343Z,93694.59
2023-01-18T07:38:29.508Z,93698.91
2023-01-18T07:41:02.713Z,93700.41
2023-01-18T07:43:30.725Z,93703.44
2023-01-18T07:45:59.141Z,93700.56
2023-01-18T07:48:27.797Z,93698.69
2023-01-18T07:50:56.624Z,93689.66
2023-01-18T07:53:31.151Z,93690.34
2023-01-18T07:56:00.460Z,93692.97
2023-01-18T07:58:30.430Z,93698.03
2023-01-18T08:01:03.534Z,93699.50
2023-01-18T08:03:31.507Z,93707.34
2023-01-18T08:06:00.202Z,93711.94
2023-01-18T08:08:29.942Z,93721.63
2023-01-18T08:10:58.345Z,93724.13
2023-01-18T08:13:27.135Z,93729.81
2023-01-18T08:15:55.534Z,93733.34
2023-01-18T08:18:24.720Z,93741.81
2023-01-18T08:20:55.016Z,93745.34
2023-01-18T08:23:23.196Z,93749.09
2023-01-18T08:25:52.477Z,93750.00
2023-01-18T08:28:20.432Z,93761.81
2023-01-18T08:30:50.150Z,93760.94
2023-01-18T08:33:18.334Z,93768.69
2023-01-18T08:35:47.785Z,93764.09
2023-01-18T08:38:17.096Z,93773.56
2023-01-18T08:40:44.975Z,93779.00
2023-01-18T08:43:14.248Z,93782.56
2023-01-18T08:45:42.173Z,93789.13
2023-01-18T08:48:11.455Z,93798.66
2023-01-18T08:50:42.504Z,93804.69
2023-01-18T08:53:10.469Z,93806.41
2023-01-18T08:55:38.454Z,93821.53
2023-01-18T08:58:13.636Z,93816.53
2023-01-18T09:00:42.905Z,93823.25
2023-01-18T09:03:12.935Z,93827.44
2023-01-18T09:05:40.878Z,93839.34
2023-01-18T09:08:08.808Z,93846.31
2023-01-18T09:10:42.468Z,93863.03
2023-01-18T09:13:12.924Z,93871.97
2023-01-18T09:15:42.225Z,93871.75
2023-01-18T09:18:10.355Z,93877.13
2023-01-18T09:20:38.247Z,93891.84
2023-01-18T09:23:07.056Z,93891.84
2023-01-18T09:25:36.358Z,93901.47
2023-01-18T09:28:05.791Z,93903.53
2023-01-18T09:30:42.910Z,93901.25
2023-01-18T09:33:14.183Z,93906.28
2023-01-18T09:35:43.681Z,93909.56
2023-01-18T09:38:12.402Z,93916.00
2023-01-18T09:40:44.922Z,93919.41
2023-01-18T09:43:18.210Z,93915.16
2023-01-18T09:45:54.946Z,93917.63
2023-01-18T09:48:30.084Z,93921.56
2023-01-18T09:51:00.856Z,93930.53
2023-01-18T09:53:44.200Z,93917.91
2023-01-18T09:56:19.500Z,93925.00
2023-01-18T09:58:57.582Z,93911.72
2023-01-18T10:01:29.187Z,93918.47
2023-01-18T10:04:02.035Z,93917.56
2023-01-18T10:06:32.541Z,93929.59
2023-01-18T10:09:04.378Z,93932.53
2023-01-18T10:11:39.142Z,93937.59
2023-01-18T10:14:10.914Z,93949.25
2023-01-18T10:16:38.938Z,93945.81
2023-01-18T10:19:16.176Z,93949.63
2023-01-18T10:21:53.318Z,93965.38
2023-01-18T10:24:30.597Z,93973.75
2023-01-18T10:27:05.179Z,93981.34
2023-01-18T10:29:44.632Z,93984.81
2023-01-18T10:32:17.526Z,93996.69
2023-01-18T10:34:49.838Z,94001.78
2023-01-18T10:37:27.998Z,93998.97
2023-01-18T10:39:58.566Z,94008.97
2023-01-18T10:42:30.466Z,94001.47
2023-01-18T10:45:00.462Z,94005.03
2023-01-18T10:47:33.342Z,94014.75
2023-01-18T10:50:13.760Z,94021.47
2023-01-18T10:52:41.697Z,94029.63
2023-01-18T10:55:16.392Z,94028.00
2023-01-18T10:57:47.326Z,94035.09
2023-01-18T11:00:23.336Z,94043.28
2023-01-18T11:02:52.969Z,94049.38
2023-01-18T11:05:28.474Z,94046.50
2023-01-18T11:08:15.633Z,94045.09
2023-01-18T11:10:44.369Z,94046.50
2023-01-18T11:13:26.312Z,94055.22
2023-01-18T11:16:12.727Z,94053.47
2023-01-18T11:18:56.784Z,94060.78
2023-01-18T11:21:30.814Z,94045.16
2023-01-18T11:24:02.082Z,94049.06
2023-01-18T11:26:29.995Z,94058.72
2023-01-18T11:29:00.812Z,94067.50
2023-01-18T11:31:31.323Z,94070.56
2023-01-18T11:34:02.412Z,94070.47
2023-01-18T11:36:39.537Z,94068.19
2023-01-18T11:39:24.752Z,94072.00
2023-01-18T11:41:53.854Z,94069.13
2023-01-18T11:44:24.553Z,94077.03
2023-01-18T11:46:55.142Z,94084.03
2023-01-18T11:49:33.685Z,94079.53
2023-01-18T11:52:05.155Z,94080.91
2023-01-18T11:54:36.601Z,94081.59
2023-01-18T11:57:04.732Z,94093.44
2023-01-18T11:59:35.869Z,94092.91
2023-01-18T12:02:47.242Z,94094.72
2023-01-18T12:05:31.201Z,94093.53
2023-01-18T12:08:15.320Z,94096.97
2023-01-18T12:10:51.139Z,94099.53
2023-01-18T12:13:36.096Z,94101.66
2023-01-18T12:16:15.668Z,94104.16
2023-01-18T12:19:28.120Z,94101.53
2023-01-18T12:22:09.301Z,94115.34
2023-01-18T12:24:47.600Z,94116.94
2023-01-18T12:27:22.468Z,94110.66
2023-01-18T12:30:05.161Z,94121.66
2023-01-18T12:32:45.559Z,94121.34
2023-01-18T12:35:32.929Z,94135.97
2023-01-18T12:38:06.519Z,94148.03
2023-01-18T12:40:45.873Z,94154.59
2023-01-18T12:43:29.083Z,94166.13
2023-01-18T12:46:02.280Z,94158.34
2023-01-18T12:48:32.571Z,94161.06
2023-01-18T12:51:01.467Z,94159.84
2023-01-18T12:53:35.536Z,94169.84
2023-01-18T12:56:10.556Z,94172.44
2023-01-18T12:58:40.291Z,94174.41
2023-01-18T13:01:14.286Z,94179.19
2023-01-18T13:03:43.917Z,94178.22
2023-01-18T13:06:12.065Z,94180.00
2023-01-18T13:08:44.779Z,94173.56
2023-01-18T13:11:17.268Z,94167.56
2023-01-18T13:13:47.917Z,94166.19
2023-01-18T13:16:31.716Z,94175.78
2023-01-18T13:19:01.903Z,94180.22
2023-01-18T13:21:44.375Z,94185.63
2023-01-18T13:24:23.110Z,94176.88
2023-01-18T13:26:53.504Z,94187.69
2023-01-18T13:29:28.428Z,94192.50
2023-01-18T13:31:56.553Z,94199.19
2023-01-18T13:34:29.733Z,94196.91
2023-01-18T13:37:13.344Z,94203.44
2023-01-18T13:39:46.800Z,94203.09
2023-01-18T13:42:38.221Z,94214.44
2023-01-18T13:45:21.097Z,94205.09
2023-01-18T13:47:54.659Z,94209.56
2023-01-18T13:50:48.349Z,94198.91
2023-01-18T13:53:31.673Z,94215.16
2023-01-18T13:56:30.493Z,94208.69
2023-01-18T13:59:18.585Z,94205.00
2023-01-18T14:01:49.319Z,94212.94
2023-01-18T14:04:24.928Z,94216.88
2023-01-18T14:06:53.914Z,94212.88
2023-01-18T14:09:35.126Z,94213.25
2023-01-18T14:12:04.718Z,94211.50
2023-01-18T14:14:35.755Z,94214.63
2023-01-18T14:17:12.283Z,94210.13
2023-01-18T14:20:03.783Z,94207.38
2023-01-18T14:22:39.280Z,94198.44
2023-01-18T14:25:29.284Z,94197.28
2023-01-18T14:28:04.402Z,94198.91
2023-01-18T14:30:35.884Z,94203.03
2023-01-18T14:33:07.771Z,94201.22
2023-01-18T14:35:37.510Z,94203.16
2023-01-18T14:38:17.387Z,94211.22
2023-01-18T14:40:47.611Z,94204.78
2023-01-18T14:43:19.927Z,94230.84
2023-01-18T14:45:55.587Z,94232.16
2023-01-18T14:48:24.529Z,94238.91
2023-01-18T14:50:54.527Z,94251.06
2023-01-18T14:53:26.573Z,94260.47
2023-01-18T14:56:06.207Z,94270.50
2023-01-18T14:58:39.986Z,94272.72
2023-01-18T15:01:18.523Z,94284.31
2023-01-18T15:03:54.416Z,94299.16
2023-01-18T15:06:29.608Z,94295.09
2023-01-18T15:08:57.877Z,94301.53
2023-01-18T15:11:28.264Z,94311.81
2023-01-18T15:13:57.370Z,94312.03
2023-01-18T15:16:31.674Z,94322.91
2023-01-18T15:19:04.244Z,94332.44
2023-01-18T15:21:35.331Z,94336.66
2023-01-18T15:24:06.384Z,94343.09
2023-01-18T15:26:41.237Z,94347.22
2023-01-18T15:29:17.438Z,94352.97
2023-01-18T15:31:52.070Z,94366.47
2023-01-18T15:34:24.670Z,94366.84
2023-01-18T15:36:52.625Z,94372.88
2023-01-18T15:39:24.687Z,94371.66
2023-01-18T15:41:55.852Z,94378.50
2023-01-18T15:44:36.537Z,94377.63
2023-01-18T15:47:15.522Z,94394.41
2023-01-18T15:49:45.457Z,94392.00
2023-01-18T15:52:13.401Z,94395.00
2023-01-18T15:54:43.609Z,94392.75
2023-01-18T15:57:15.250Z,94401.41
2023-01-18T15:59:43.794Z,94393.94
2023-01-18T16:02:28.781Z,94403.13
2023-01-18T16:05:11.673Z,94410.38
2023-01-18T16:07:42.289Z,94409.25
2023-01-18T16:10:20.136Z,94415.94
2023-01-18T16:12:48.503Z,94421.69
2023-01-18T16:15:27.058Z,94421.13
2023-01-18T16:18:02.720Z,94421.94
2023-01-18T16:20:33.795Z,94421.94
2023-01-18T16:23:08.556Z,94426.78
2023-01-18T16:25:36.939Z,94423.84
2023-01-18T16:28:07.399Z,94422.41
2023-01-18T16:30:41.774Z,94436.84
2023-01-18T16:33:17.803Z,94432.09
2023-01-18T16:35:47.996Z,94430.75
2023-01-18T16:38:17.548Z,94435.25
2023-01-18T16:40:47.071Z,94439.13
2023-01-18T16:43:22.494Z,94434.56
2023-01-18T16:45:51.374Z,94436.16
2023-01-18T16:48:22.389Z,94432.56
2023-01-18T16:50:50.941Z,94436.22
2023-01-18T16:53:19.022Z,94429.44
2023-01-18T16:55:48.236Z,94443.28
2023-01-18T16:58:18.344Z,94428.56
2023-01-18T17:00:53.150Z,94435.97
2023-01-18T17:03:22.843Z,94438.81
2023-01-18T17:05:54.367Z,94434.41
2023-01-18T17:08:22.344Z,94440.22
2023-01-18T17:10:52.050Z,94440.50
2023-01-18T17:13:20.981Z,94439.03
2023-01-18T17:15:49.108Z,94443.88
2023-01-18T17:18:20.730Z,94449.94
2023-01-18T17:20:51.538Z,94447.22
2023-01-18T17:23:19.741Z,94446.69
2023-01-18T17:25:49.813Z,94452.56
2023-01-18T17:28:29.608Z,94458.41
2023-01-18T17:30:57.608Z,94463.88
2023-01-18T17:33:26.692Z,94482.03
2023-01-18T17:35:57.519Z,94486.34
2023-01-18T17:38:29.193Z,94498.56
2023-01-18T17:41:00.405Z,94511.31
2023-01-18T17:43:34.687Z,94520.31
2023-01-18T17:46:04.455Z,94541.31
2023-01-18T17:48:32.537Z,94542.94
2023-01-18T17:51:03.388Z,94547.34
2023-01-18T17:53:31.320Z,94548.88
2023-01-18T17:55:59.198Z,94554.34
2023-01-18T17:58:27.077Z,94562.88
2023-01-18T18:00:55.432Z,94562.44
2023-01-18T18:03:23.494Z,94563.25
2023-01-18T18:05:51.406Z,94569.16
2023-01-18T18:08:22.817Z,94571.63
2023-01-18T18:10:50.691Z,94574.13
2023-01-18T18:13:22.239Z,94577.16
2023-01-18T18:15:50.593Z,94582.38
2023-01-18T18:18:23.169Z,94573.66
2023-01-18T18:20:52.262Z,94574.47
2023-01-18T18:23:21.489Z,94553.34
2023-01-18T18:25:49.778Z,94551.19
2023-01-18T18:28:17.770Z,94545.19
2023-01-18T18:30:48.945Z,94536.88
2023-01-18T18:33:16.986Z,94541.22
2023-01-18T18:35:44.878Z,94552.53
2023-01-18T18:38:13.644Z,94548.69
2023-01-18T18:40:42.954Z,94560.91
2023-01-18T18:43:13.453Z,94564.03
2023-01-18T18:45:41.384Z,94567.72
2023-01-18T18:48:10.105Z,94577.22
2023-01-18T18:50:40.763Z,94576.03
2023-01-18T18:53:08.669Z,94579.13
2023-01-18T18:55:36.595Z,94577.13
2023-01-18T18:58:06.367Z,94583.69
2023-01-18T19:00:34.459Z,94588.53
2023-01-18T19:03:03.938Z,94589.97
2023-01-18T19:05:34.878Z,94585.09
2023-01-18T19:08:06.612Z,94586.38
2023-01-18T19:10:34.715Z,94596.44
2023-01-18T19:13:04.852Z,94601.16
2023-01-18T19:15:34.219Z,94599.28
2023-01-18T19:18:02.180Z,94592.28
2023-01-18T19:20:30.171Z,94590.66
2023-01-18T19:22:58.792Z,94594.59
2023-01-18T19:25:27.089Z,94589.06
2023-01-18T19:27:55.026Z,94592.06
2023-01-18T19:30:25.366Z,94591.69
2023-01-18T19:32:54.683Z,94601.41
2023-01-18T19:35:22.597Z,94604.63
2023-01-18T19:37:50.957Z,94603.97
2023-01-18T19:40:21.332Z,94621.34
2023-01-18T19:42:54.291Z,94633.56
2023-01-18T19:45:27.850Z,94630.84
2023-01-18T19:48:01.949Z,94636.28
2023-01-18T19:50:30.895Z,94638.44
2023-01-18T19:52:59.601Z,94635.94
2023-01-18T19:55:27.641Z,94641.91
2023-01-18T19:57:56.512Z,94639.66
2023-01-18T20:00:24.824Z,94643.22
2023-01-18T20:02:53.556Z,94637.75
2023-01-18T20:05:23.538Z,94638.88
2023-01-18T20:07:54.236Z,94645.34
2023-01-18T20:10:22.145Z,94662.22
2023-01-18T20:12:50.095Z,94658.72
2023-01-18T20:15:19.075Z,94656.06
2023-01-18T20:17:46.972Z,94658.94
2023-01-18T20:20:24.329Z,94659.72
2023-01-18T20:23:03.047Z,94660.91
2023-01-18T20:25:32.047Z,94659.06
2023-01-18T20:28:00.137Z,94667.03
2023-01-18T20:30:28.032Z,94665.50
2023-01-18T20:32:56.301Z,94657.13
2023-01-18T20:35:24.180Z,94658.94
2023-01-18T20:37:54.412Z,94652.28
2023-01-18T20:40:24.073Z,94661.13
2023-01-18T20:42:51.934Z,94658.50
2023-01-18T20:45:19.836Z,94664.13
2023-01-18T20:47:48.909Z,94669.66
2023-01-18T20:50:20.246Z,94669.50
2023-01-18T20:52:48.131Z,94683.94
2023-01-18T20:55:16.602Z,94677.72
2023-01-18T20:57:46.011Z,94683.41
2023-01-18T21:00:16.782Z,94680.66
2023-01-18T21:02:45.830Z,94681.56
2023-01-18T21:05:13.852Z,94690.34
2023-01-18T21:07:42.020Z,94688.22
2023-01-18T21:10:18.726Z,94691.91
2023-01-18T21:12:49.090Z,94696.84
2023-01-18T21:15:22.085Z,94707.44
2023-01-18T21:17:54.599Z,94703.66
2023-01-18T21:20:22.557Z,94707.00
2023-01-18T21:22:50.455Z,94710.50
2023-01-18T21:25:18.318Z,94720.75
2023-01-18T21:27:47.595Z,94730.09
2023-01-18T21:30:16.648Z,94739.44
2023-01-18T21:32:44.845Z,94743.38
2023-01-18T21:35:13.075Z,94738.88
2023-01-18T21:37:41.688Z,94729.00
2023-01-18T21:40:12.271Z,94742.81
2023-01-18T21:42:57.524Z,94743.56
2023-01-18T21:45:44.021Z,94735.41
2023-01-18T21:48:12.488Z,94758.13
2023-01-18T21:51:00.465Z,94762.56
2023-01-18T21:53:45.943Z,94771.00
2023-01-18T21:56:15.611Z,94777.34
2023-01-18T21:58:56.086Z,94776.66
2023-01-18T22:01:26.896Z,94783.63
2023-01-18T22:04:13.284Z,94787.84
2023-01-18T22:06:42.081Z,94794.97
2023-01-18T22:09:09.969Z,94803.06
2023-01-18T22:11:37.880Z,94803.72
2023-01-18T22:14:11.010Z,94816.72
2023-01-18T22:16:40.392Z,94821.34
2023-01-18T22:19:10.663Z,94827.34
2023-01-18T22:21:39.060Z,94838.25
2023-01-18T22:24:10.093Z,94846.44
2023-01-18T22:26:39.034Z,94852.06
2023-01-18T22:29:06.961Z,94849.88
2023-01-18T22:31:34.934Z,94858.47
2023-01-18T22:34:05.583Z,94864.63
2023-01-18T22:36:33.733Z,94868.53
2023-01-18T22:39:01.770Z,94869.16
2023-01-18T22:41:30.190Z,94877.16
2023-01-18T22:43:58.464Z,94878.28
2023-01-18T22:46:26.382Z,94876.66
2023-01-18T22:48:54.385Z,94870.97
2023-01-18T22:51:24.715Z,94874.84
2023-01-18T22:53:53.282Z,94869.53
2023-01-18T22:56:25.223Z,94876.16
2023-01-18T22:58:53.277Z,94892.16
2023-01-18T23:01:26.964Z,94888.88
2023-01-18T23:03:59.348Z,94893.69
2023-01-18T23:06:29.121Z,94898.41
2023-01-18T23:08:57.163Z,94902.13
2023-01-18T23:11:27.409Z,94893.69
2023-01-18T23:14:14.098Z,94890.09
2023-01-18T23:16:59.864Z,94891.34
2023-01-18T23:19:30.602Z,94905.44
2023-01-18T23:22:00.472Z,94911.94
2023-01-18T23:24:28.391Z,94923.63
2023-01-18T23:26:56.288Z,94935.38
2023-01-18T23:29:31.893Z,94937.16
2023-01-18T23:31:59.787Z,94935.31
2023-01-18T23:34:27.773Z,94932.88
2023-01-18T23:37:03.066Z,94926.38
2023-01-18T23:39:49.685Z,94928.41
2023-01-18T23:42:37.917Z,94928.81
2023-01-18T23:45:26.669Z,94947.34
2023-01-18T23:48:12.884Z,94946.25
2023-01-18T23:50:58.047Z,94949.25
2023-01-18T23:53:43.167Z,94942.09
2023-01-18T23:56:12.468Z,94943.09
2023-01-18T23:58:40.843Z,94944.38
